New Almelo, Kansas
Current Conditions -  °F | °C
As of 6:53 AM on Friday 28 Nov 2014 (Local Time) from KHLC Reporting Station
Clear Clear  
Wind Chill: 33°   Ceiling: Unl
Heat Index: 33°   Visibility: 10mi
Dew Point: 23°   Wind: 0mph
Humidity: 66%   Direction: NA
Pressure: 29.9"   Gusts: NA
Location:  39.68°N, 99.7571°W
Report Text: KHLC 281253Z AUTO 00000KT 10SM CLR 01/M05 A2990 RMK AO2 SLP138 T00061050
Loading
Personal Weather Stations






























Interactive Weather Map New forecast layout! Learn more

10-Day Weather Forecast

Advertisements
Track Severe Weather on mobile